createdAt,value
2022-09-15T00:03:22.038Z,7.8
2022-09-15T00:08:22.046Z,7.7
2022-09-15T00:13:22.044Z,8.7
2022-09-15T00:18:22.045Z,8.1
2022-09-15T00:23:22.044Z,8.6
2022-09-15T00:28:22.065Z,8.6
2022-09-15T00:33:22.053Z,7.9
2022-09-15T00:38:22.054Z,7.7
2022-09-15T00:43:22.065Z,8.1
2022-09-15T00:48:22.067Z,8.2
2022-09-15T00:53:22.076Z,8.2
2022-09-15T00:58:22.073Z,8.2
2022-09-15T01:03:22.077Z,8.2
2022-09-15T01:08:22.085Z,8.3
2022-09-15T01:13:22.077Z,8.2
2022-09-15T01:18:22.086Z,8.6
2022-09-15T01:23:22.082Z,8.6
2022-09-15T01:28:22.085Z,8.3
2022-09-15T01:33:22.088Z,8.6
2022-09-15T01:38:22.095Z,8.2
2022-09-15T01:43:22.093Z,9.1
2022-09-15T01:48:22.100Z,9.0
2022-09-15T01:53:22.100Z,8.2
2022-09-15T01:58:22.099Z,9.5
2022-09-15T02:03:22.182Z,9.1
2022-09-15T02:08:22.104Z,9.6
2022-09-15T02:13:22.110Z,9.2
2022-09-15T02:18:22.124Z,8.9
2022-09-15T02:23:22.111Z,9.0
2022-09-15T02:28:22.123Z,9.3
2022-09-15T02:33:22.119Z,9.0
2022-09-15T02:38:22.125Z,8.5
2022-09-15T02:43:22.126Z,8.3
2022-09-15T02:48:22.137Z,8.7
2022-09-15T02:53:22.130Z,8.1
2022-09-15T02:58:22.137Z,8.0
2022-09-15T03:03:22.163Z,8.1
2022-09-15T03:08:22.141Z,7.9
2022-09-15T03:13:22.144Z,8.0
2022-09-15T03:18:22.147Z,7.7
2022-09-15T03:23:22.144Z,8.3
2022-09-15T03:28:22.152Z,7.4
2022-09-15T03:33:22.153Z,8.0
2022-09-15T03:38:22.150Z,8.4
2022-09-15T03:43:22.155Z,8.8
2022-09-15T03:48:22.161Z,8.7
2022-09-15T03:53:22.165Z,8.8
2022-09-15T03:58:22.163Z,8.4
2022-09-15T04:03:22.168Z,8.6
2022-09-15T04:08:22.172Z,8.7
2022-09-15T04:13:26.709Z,7.5
2022-09-15T04:18:22.191Z,8.0
2022-09-15T04:23:22.185Z,8.0
2022-09-15T04:28:22.184Z,7.5
2022-09-15T04:33:22.189Z,7.1
2022-09-15T04:38:22.191Z,7.0
2022-09-15T04:43:22.187Z,7.1
2022-09-15T04:48:22.197Z,7.7
2022-09-15T04:53:22.198Z,7.4
2022-09-15T04:58:22.200Z,7.5
2022-09-15T05:03:22.203Z,7.2
2022-09-15T05:08:22.207Z,7.2
2022-09-15T05:13:22.213Z,7.2
2022-09-15T05:18:22.214Z,7.5
2022-09-15T05:23:22.213Z,7.2
2022-09-15T05:28:22.218Z,7.3
2022-09-15T05:33:22.229Z,7.6
2022-09-15T05:38:22.222Z,7.2
2022-09-15T05:43:22.223Z,7.5
2022-09-15T05:48:22.228Z,7.7
2022-09-15T05:53:22.231Z,8.1
2022-09-15T05:58:22.243Z,7.4
2022-09-15T06:03:22.378Z,7.1
2022-09-15T06:08:22.241Z,6.8
2022-09-15T06:13:22.244Z,7.2
2022-09-15T06:18:22.240Z,6.8
2022-09-15T06:23:22.247Z,7.7
2022-09-15T06:28:22.254Z,7.1
2022-09-15T06:33:22.261Z,6.6
2022-09-15T06:38:22.260Z,6.9
2022-09-15T06:43:22.263Z,7.2
2022-09-15T06:48:24.945Z,7.2
2022-09-15T06:53:22.267Z,7.9
2022-09-15T06:58:22.274Z,7.1
2022-09-15T07:03:22.459Z,6.8
2022-09-15T07:08:22.277Z,6.9
2022-09-15T07:13:22.281Z,6.2
2022-09-15T07:18:22.280Z,5.7
2022-09-15T07:23:22.284Z,6.0
2022-09-15T07:28:22.292Z,5.2
2022-09-15T07:33:22.294Z,4.4
2022-09-15T07:38:22.294Z,4.3
2022-09-15T07:43:22.312Z,3.8
2022-09-15T07:48:26.250Z,4.1
2022-09-15T07:53:22.308Z,3.0
2022-09-15T07:58:22.312Z,2.8
2022-09-15T08:03:22.319Z,2.8
2022-09-15T08:08:22.327Z,3.1
2022-09-15T08:13:22.337Z,2.7
2022-09-15T08:18:22.341Z,2.6
2022-09-15T08:23:22.335Z,3.0
2022-09-15T08:28:22.328Z,3.0
2022-09-15T08:33:22.334Z,3.3
2022-09-15T08:38:22.337Z,2.5
2022-09-15T08:43:22.342Z,2.9
2022-09-15T08:48:22.347Z,3.4
2022-09-15T08:53:22.360Z,3.1
2022-09-15T08:58:22.412Z,3.0
2022-09-15T09:03:22.357Z,2.8
2022-09-15T09:08:22.367Z,2.9
2022-09-15T09:13:22.369Z,2.6
2022-09-15T09:18:22.367Z,2.1
2022-09-15T09:23:22.377Z,1.9
2022-09-15T09:28:22.378Z,1.9
2022-09-15T09:33:22.391Z,2.1
2022-09-15T09:38:22.377Z,2.4
2022-09-15T09:43:22.386Z,2.5
2022-09-15T09:48:22.398Z,2.3
2022-09-15T09:53:22.389Z,2.4
2022-09-15T09:58:22.389Z,1.6
2022-09-15T10:03:22.422Z,1.7
2022-09-15T10:08:22.399Z,1.7
2022-09-15T10:13:22.400Z,1.6
2022-09-15T10:18:22.407Z,1.9
2022-09-15T10:23:22.414Z,1.3
2022-09-15T10:28:22.408Z,1.7
2022-09-15T10:33:22.413Z,1.7
2022-09-15T10:38:22.419Z,1.0
2022-09-15T10:43:22.419Z,1.0
2022-09-15T10:48:22.426Z,1.0
2022-09-15T10:53:22.437Z,0.6
2022-09-15T10:58:22.451Z,1.2
2022-09-15T11:03:22.427Z,0.8
2022-09-15T11:08:22.430Z,0.7
2022-09-15T11:13:22.423Z,0.9
2022-09-15T11:18:22.431Z,0.6
2022-09-15T11:23:22.432Z,0.9
2022-09-15T11:28:22.441Z,0.9
2022-09-15T11:33:22.448Z,0.7
2022-09-15T11:38:22.452Z,0.8
2022-09-15T11:43:22.450Z,0.9
2022-09-15T11:48:22.457Z,1.5
2022-09-15T11:53:22.453Z,1.0
2022-09-15T11:58:22.587Z,0.9
2022-09-15T12:03:22.578Z,1.0
2022-09-15T12:08:22.492Z,1.1
2022-09-15T12:13:22.475Z,1.1
2022-09-15T12:18:37.719Z,1.2
2022-09-15T12:23:22.519Z,1.1
2022-09-15T12:28:22.592Z,1.2
2022-09-15T12:33:22.488Z,1.0
2022-09-15T12:38:22.492Z,1.1
2022-09-15T12:43:22.511Z,1.2
2022-09-15T12:48:22.508Z,1.2
2022-09-15T12:53:22.606Z,0.9
2022-09-15T12:58:22.527Z,1.2
2022-09-15T13:03:22.592Z,0.8
2022-09-15T13:08:22.527Z,1.0
2022-09-15T13:13:22.535Z,0.9
2022-09-15T13:18:22.528Z,1.0
2022-09-15T13:23:22.530Z,0.9
2022-09-15T13:28:22.681Z,0.8
2022-09-15T13:33:22.612Z,1.0
2022-09-15T13:38:26.493Z,0.8
2022-09-15T13:43:22.558Z,0.9
2022-09-15T13:48:22.547Z,0.6
2022-09-15T13:53:22.546Z,1.0
2022-09-15T14:03:22.552Z,0.7
2022-09-15T14:08:22.556Z,0.7
2022-09-15T14:13:22.564Z,0.8
2022-09-15T14:18:22.575Z,0.7
2022-09-15T14:23:22.564Z,0.7
2022-09-15T14:28:22.567Z,0.9
2022-09-15T14:33:22.573Z,0.6
2022-09-15T14:38:22.580Z,0.6
2022-09-15T14:43:22.584Z,0.6
2022-09-15T14:48:22.589Z,0.6
2022-09-15T14:53:22.582Z,0.5
2022-09-15T14:58:22.583Z,0.7
2022-09-15T15:03:22.597Z,0.7
2022-09-15T15:08:22.584Z,0.7
2022-09-15T15:13:22.586Z,0.5
2022-09-15T15:18:22.585Z,0.9
2022-09-15T15:23:22.591Z,0.6
2022-09-15T15:28:22.611Z,0.5
2022-09-15T15:33:22.605Z,0.8
2022-09-15T15:38:22.597Z,0.7
2022-09-15T15:43:22.601Z,0.6
2022-09-15T15:48:22.605Z,0.7
2022-09-15T15:53:22.606Z,0.6
2022-09-15T15:58:22.608Z,0.8
2022-09-15T16:03:22.612Z,0.8
2022-09-15T16:08:22.618Z,0.7
2022-09-15T16:13:22.623Z,0.7
2022-09-15T16:18:22.629Z,0.8
2022-09-15T16:23:22.622Z,0.6
2022-09-15T16:28:22.626Z,0.9
2022-09-15T16:33:22.627Z,0.8
2022-09-15T16:38:22.629Z,0.7
2022-09-15T16:43:22.630Z,1.1
2022-09-15T16:48:22.631Z,0.6
2022-09-15T16:53:22.635Z,0.7
2022-09-15T16:58:22.642Z,0.9
2022-09-15T17:03:22.639Z,0.7
2022-09-15T17:08:22.646Z,1.0
2022-09-15T17:13:25.088Z,0.8
2022-09-15T17:18:22.648Z,0.7
2022-09-15T17:23:22.649Z,0.7
2022-09-15T17:28:22.763Z,0.8
2022-09-15T17:33:22.659Z,0.8
2022-09-15T17:38:22.656Z,0.8
2022-09-15T17:43:22.661Z,0.8
2022-09-15T17:48:22.656Z,0.6
2022-09-15T17:53:22.660Z,1.2
2022-09-15T17:58:22.661Z,0.8
2022-09-15T18:03:22.665Z,1.0
2022-09-15T18:08:22.670Z,0.9
2022-09-15T18:13:22.667Z,1.0
2022-09-15T18:18:22.663Z,1.1
2022-09-15T18:23:22.670Z,1.0
2022-09-15T18:28:22.672Z,1.0
2022-09-15T18:33:22.676Z,1.6
2022-09-15T18:38:22.682Z,1.2
2022-09-15T18:43:22.686Z,1.0
2022-09-15T18:48:22.683Z,1.1
2022-09-15T18:53:22.683Z,1.2
2022-09-15T18:58:22.726Z,1.0
2022-09-15T19:03:22.695Z,0.9
2022-09-15T19:08:22.693Z,0.9
2022-09-15T19:13:22.689Z,0.9
2022-09-15T19:18:22.696Z,0.8
2022-09-15T19:23:22.720Z,0.8
2022-09-15T19:28:22.698Z,0.8
2022-09-15T19:33:22.703Z,0.8
2022-09-15T19:38:22.705Z,0.8
2022-09-15T19:43:22.712Z,0.9
2022-09-15T19:48:22.713Z,1.2
2022-09-15T19:53:22.714Z,1.1
2022-09-15T19:58:22.714Z,0.9
2022-09-15T20:03:22.724Z,0.9
2022-09-15T20:08:22.724Z,1.2
2022-09-15T20:13:22.722Z,1.2
2022-09-15T20:18:22.728Z,1.0
2022-09-15T20:23:22.725Z,0.7
2022-09-15T20:28:22.738Z,0.7
2022-09-15T20:33:22.740Z,0.5
2022-09-15T20:38:22.733Z,0.7
2022-09-15T20:43:22.738Z,0.8
2022-09-15T20:48:22.744Z,0.6
2022-09-15T20:53:22.748Z,0.7
2022-09-15T20:58:22.749Z,0.7
2022-09-15T21:03:22.754Z,0.8
2022-09-15T21:08:22.759Z,0.9
2022-09-15T21:13:22.755Z,0.7
2022-09-15T21:18:22.755Z,0.8
2022-09-15T21:23:22.790Z,1.0
2022-09-15T21:28:22.764Z,1.1
2022-09-15T21:33:22.765Z,1.1
2022-09-15T21:38:22.769Z,1.0
2022-09-15T21:43:22.776Z,1.2
2022-09-15T21:48:22.770Z,1.0
2022-09-15T21:53:22.779Z,1.2
2022-09-15T21:58:23.567Z,1.0
2022-09-15T22:03:22.788Z,1.1
2022-09-15T22:08:22.781Z,1.1
2022-09-15T22:13:22.783Z,1.1
2022-09-15T22:18:22.790Z,1.2
2022-09-15T22:23:22.790Z,1.3
2022-09-15T22:28:22.790Z,1.4
2022-09-15T22:33:22.797Z,1.4
2022-09-15T22:38:22.795Z,1.2
2022-09-15T22:43:22.805Z,1.3
2022-09-15T22:48:22.830Z,1.4
2022-09-15T22:53:22.807Z,1.4
2022-09-15T22:58:22.807Z,1.4
2022-09-15T23:03:22.810Z,1.3
2022-09-15T23:08:22.820Z,1.1
2022-09-15T23:13:22.828Z,1.3
2022-09-15T23:18:22.815Z,1.4
2022-09-15T23:23:22.818Z,1.2
2022-09-15T23:28:22.819Z,1.2
2022-09-15T23:33:22.835Z,1.1
2022-09-15T23:38:22.837Z,1.4
2022-09-15T23:43:22.826Z,1.3
2022-09-15T23:48:22.835Z,1.4
2022-09-15T23:53:22.835Z,1.5
2022-09-15T23:58:22.842Z,1.1
